Time;durP1;ratioP1;P1;durP2;ratioP2;P2;SDS_P1;SDS_P2;PMS_P1;PMS_P2;Temp;Humidity;BMP_temperature;BMP_pressure;BME280_temperature;BME280_humidity;BME280_pressure;Samples;Min_cycle;Max_cycle;Signal;HPM_P1;HPM_P2
2023/01/11 00:01:52;;;;;;;9.33;7.50;;;8.20;99.90;;;;;;5013313;28;20676;-89
2023/01/11 00:04:18;;;;;;;9.47;7.43;;;8.30;99.90;;;;;;4997025;28;20042;-87
2023/01/11 00:06:45;;;;;;;8.43;7.30;;;8.30;99.90;;;;;;5007522;28;20414;-91
2023/01/11 00:09:11;;;;;;;8.40;7.17;;;8.30;99.90;;;;;;4985925;28;20099;-90
2023/01/11 00:11:37;;;;;;;8.93;7.53;;;8.30;99.90;;;;;;5001906;28;20049;-89
2023/01/11 00:14:03;;;;;;;8.00;7.20;;;8.40;99.90;;;;;;5010699;28;20049;-92
2023/01/11 00:16:29;;;;;;;9.87;7.53;;;8.40;99.90;;;;;;5017562;28;20044;-89
2023/01/11 00:18:55;;;;;;;8.60;7.70;;;8.40;99.90;;;;;;5014619;28;20503;-88
2023/01/11 00:21:21;;;;;;;8.87;7.93;;;8.40;99.90;;;;;;4980224;28;20044;-90
2023/01/11 00:23:48;;;;;;;8.83;7.77;;;8.40;99.90;;;;;;4989552;28;20117;-89
2023/01/11 00:26:15;;;;;;;8.93;8.03;;;8.40;99.90;;;;;;5012673;28;20129;-89
2023/01/11 00:28:41;;;;;;;8.77;7.40;;;8.50;99.90;;;;;;5001341;28;20048;-91
2023/01/11 00:31:07;;;;;;;8.20;7.40;;;8.50;99.90;;;;;;5000284;28;20121;-89
2023/01/11 00:33:33;;;;;;;8.23;6.97;;;8.50;99.90;;;;;;4995735;28;20717;-90
2023/01/11 00:35:59;;;;;;;8.73;7.20;;;8.50;99.90;;;;;;4996130;28;20045;-89
2023/01/11 00:38:42;;;;;;;9.43;7.67;;;8.50;99.90;;;;;;4964379;28;20046;-88
2023/01/11 00:49:23;;;;;;;7.90;7.10;;;8.60;99.90;;;;;;5011957;28;20133;-88
2023/01/11 00:51:49;;;;;;;9.97;7.20;;;8.60;99.90;;;;;;5012300;28;20164;-89
2023/01/11 00:54:15;;;;;;;7.73;6.90;;;8.70;99.90;;;;;;5020769;28;20049;-89
2023/01/11 00:56:41;;;;;;;8.07;6.93;;;8.70;99.90;;;;;;5015867;28;20102;-89
2023/01/11 00:59:07;;;;;;;9.03;7.07;;;8.70;99.90;;;;;;5025037;28;20038;-89
2023/01/11 01:01:33;;;;;;;8.20;6.87;;;8.70;99.90;;;;;;5010884;28;20052;-90
2023/01/11 01:04:00;;;;;;;7.43;6.63;;;8.80;99.90;;;;;;4998410;28;20392;-90
2023/01/11 01:06:26;;;;;;;7.73;6.83;;;8.80;99.90;;;;;;5015306;28;20050;-89
2023/01/11 01:08:52;;;;;;;8.77;6.80;;;8.80;99.90;;;;;;5012170;28;20042;-88
2023/01/11 01:11:18;;;;;;;8.17;7.17;;;8.80;99.90;;;;;;5011847;28;20050;-88
2023/01/11 01:16:27;;;;;;;8.27;6.90;;;8.90;99.90;;;;;;5014436;28;20050;-88
2023/01/11 01:18:56;;;;;;;7.03;6.33;;;8.90;99.90;;;;;;5014868;28;20339;-89
2023/01/11 01:21:22;;;;;;;8.17;6.97;;;9.00;99.90;;;;;;5016149;28;20045;-90
2023/01/11 01:23:50;;;;;;;8.00;7.20;;;9.00;99.90;;;;;;5015913;28;20048;-89
2023/01/11 01:26:16;;;;;;;9.10;6.97;;;9.00;99.90;;;;;;5015761;28;20065;-92
2023/01/11 01:28:42;;;;;;;10.23;7.30;;;9.00;99.90;;;;;;5015817;28;20481;-90
2023/01/11 01:31:08;;;;;;;10.57;7.47;;;9.00;99.90;;;;;;5015921;28;20052;-89
2023/01/11 01:33:34;;;;;;;8.33;6.90;;;9.00;99.90;;;;;;5018573;28;20505;-91
2023/01/11 01:36:04;;;;;;;8.90;7.40;;;9.00;99.90;;;;;;4982951;28;20038;-88
2023/01/11 01:38:30;;;;;;;7.90;7.10;;;9.00;99.90;;;;;;5002614;28;20046;-88
2023/01/11 01:40:56;;;;;;;9.07;7.70;;;9.00;99.90;;;;;;5016047;28;20045;-90
2023/01/11 01:43:42;;;;;;;8.03;6.73;;;9.00;99.90;;;;;;5015581;28;20046;-91
2023/01/11 01:46:08;;;;;;;9.90;7.53;;;9.00;99.90;;;;;;5016901;28;20049;-89
2023/01/11 01:48:35;;;;;;;10.33;6.93;;;9.00;99.90;;;;;;5017661;28;20033;-91
2023/01/11 01:51:02;;;;;;;8.60;7.53;;;9.00;99.90;;;;;;4999712;28;20053;-91
2023/01/11 01:53:39;;;;;;;8.30;6.97;;;9.10;99.90;;;;;;5015293;28;20117;-91
2023/01/11 01:56:14;;;;;;;8.47;7.07;;;9.10;99.90;;;;;;5000139;28;20037;-88
2023/01/11 01:58:45;;;;;;;9.03;7.53;;;9.10;99.90;;;;;;5031608;28;20038;-90
2023/01/11 02:03:57;;;;;;;9.87;7.80;;;9.20;99.90;;;;;;5001729;28;20077;-88
2023/01/11 02:06:24;;;;;;;10.47;7.80;;;9.20;99.90;;;;;;4966419;28;20113;-91
2023/01/11 02:09:04;;;;;;;9.83;7.30;;;9.20;99.90;;;;;;5014215;28;20489;-91
2023/01/11 02:11:30;;;;;;;9.27;7.40;;;9.20;99.90;;;;;;5015320;28;20118;-90
2023/01/11 02:14:18;;;;;;;10.20;7.23;;;9.30;99.90;;;;;;4990564;28;20492;-91
2023/01/11 02:16:43;;;;;;;10.07;7.40;;;9.30;99.90;;;;;;5006324;28;20101;-89
2023/01/11 02:19:36;;;;;;;9.67;7.10;;;9.30;99.90;;;;;;4995891;28;20125;-89
2023/01/11 02:22:40;;;;;;;8.02;6.32;;;9.30;99.90;;;;;;4980565;28;20536;-90
2023/01/11 02:25:21;;;;;;;6.83;6.13;;;9.30;99.90;;;;;;4998070;28;20045;-91
2023/01/11 02:28:06;;;;;;;8.10;6.83;;;9.40;99.90;;;;;;5014653;28;20041;-90
2023/01/11 02:30:42;;;;;;;7.73;6.60;;;9.50;99.90;;;;;;4997821;28;20390;-91
2023/01/11 02:33:13;;;;;;;7.67;6.47;;;9.50;99.90;;;;;;5011756;28;20084;-90
2023/01/11 02:35:46;;;;;;;8.30;6.75;;;9.50;99.90;;;;;;5014386;28;20049;-89
2023/01/11 02:38:40;;;;;;;8.67;6.37;;;9.50;99.90;;;;;;4995349;28;20129;-90
2023/01/11 02:45:00;;;;;;;8.57;6.50;;;9.50;99.90;;;;;;4978613;28;20113;-89
2023/01/11 02:47:17;;;;;;;6.97;6.28;;;9.60;99.90;;;;;;5015030;28;20094;-90
2023/01/11 02:50:11;;;;;;;6.90;6.07;;;9.60;99.90;;;;;;5014782;28;20041;-91
2023/01/11 02:53:29;;;;;;;7.60;6.23;;;9.60;99.90;;;;;;5007415;28;20050;-90
2023/01/11 02:55:58;;;;;;;7.57;5.97;;;9.60;99.90;;;;;;4966058;28;20049;-89
2023/01/11 02:58:28;;;;;;;8.23;5.83;;;9.60;99.90;;;;;;5013388;28;20045;-91
2023/01/11 03:00:57;;;;;;;8.37;5.90;;;9.70;99.90;;;;;;4997680;28;20042;-89
2023/01/11 03:03:23;;;;;;;6.10;5.50;;;9.70;99.90;;;;;;4998212;28;20668;-91
2023/01/11 03:05:54;;;;;;;6.83;5.70;;;9.70;99.90;;;;;;5010502;28;20054;-91
2023/01/11 03:08:40;;;;;;;6.00;5.23;;;9.70;99.90;;;;;;4991199;28;20053;-90
2023/01/11 03:14:44;;;;;;;7.37;5.60;;;9.80;99.90;;;;;;4960565;28;20046;-88
2023/01/11 03:17:49;;;;;;;6.23;5.40;;;9.80;99.90;;;;;;4996537;28;20080;-89
2023/01/11 03:20:46;;;;;;;5.97;5.10;;;9.80;99.90;;;;;;5013254;28;20378;-89
2023/01/11 03:23:22;;;;;;;6.47;5.27;;;9.80;99.90;;;;;;5016891;28;20052;-90
2023/01/11 03:26:07;;;;;;;6.47;5.00;;;9.80;99.90;;;;;;5007264;28;20046;-86
2023/01/11 03:28:52;;;;;;;5.80;5.20;;;9.80;99.90;;;;;;5012231;28;20728;-85
2023/01/11 03:31:27;;;;;;;7.90;5.20;;;9.80;99.90;;;;;;5013181;28;20057;-86
2023/01/11 03:34:05;;;;;;;6.70;4.73;;;9.90;99.90;;;;;;4984741;28;20844;-85
2023/01/11 03:36:34;;;;;;;6.57;4.73;;;9.90;99.90;;;;;;4992270;28;20038;-87
2023/01/11 03:39:10;;;;;;;5.00;4.30;;;9.90;99.90;;;;;;5000718;28;20046;-87
2023/01/11 03:41:40;;;;;;;4.77;4.03;;;9.90;99.90;;;;;;5011835;28;20042;-89
2023/01/11 03:44:09;;;;;;;5.97;3.93;;;9.90;99.90;;;;;;4997092;28;20042;-90
2023/01/11 03:46:45;;;;;;;5.07;3.77;;;9.90;99.90;;;;;;5014717;28;20056;-91
2023/01/11 03:49:26;;;;;;;3.90;3.50;;;9.90;99.90;;;;;;5002394;28;20038;-91
2023/01/11 03:51:55;;;;;;;4.20;3.40;;;9.90;99.90;;;;;;5014398;28;20180;-91
2023/01/11 03:54:23;;;;;;;4.13;3.60;;;9.90;99.90;;;;;;5013927;28;20145;-89
2023/01/11 03:57:11;;;;;;;3.67;3.30;;;10.00;99.90;;;;;;5003905;28;20080;-91
2023/01/11 03:59:40;;;;;;;3.90;3.30;;;10.00;99.90;;;;;;5006351;28;20524;-92
2023/01/11 04:02:18;;;;;;;3.50;3.20;;;10.00;99.90;;;;;;5013519;28;20045;-90
2023/01/11 04:04:44;;;;;;;4.97;3.40;;;10.10;99.90;;;;;;5012793;28;20037;-90
2023/01/11 04:07:10;;;;;;;3.50;2.60;;;10.10;99.90;;;;;;4986492;28;20045;-91
2023/01/11 04:09:35;;;;;;;3.17;2.87;;;10.10;99.90;;;;;;5029595;28;20710;-90
2023/01/11 04:12:01;;;;;;;2.97;2.47;;;10.10;99.90;;;;;;4996904;28;20046;-92
2023/01/11 04:14:27;;;;;;;3.30;2.20;;;10.10;99.90;;;;;;4997417;28;20392;-92
2023/01/11 04:16:53;;;;;;;1.90;1.80;;;10.10;99.90;;;;;;5000908;28;20042;-91
2023/01/11 04:19:18;;;;;;;2.30;2.10;;;10.20;99.90;;;;;;4987790;28;20084;-92
2023/01/11 04:21:44;;;;;;;1.60;1.50;;;10.20;99.90;;;;;;5013268;28;20041;-91
2023/01/11 04:24:12;;;;;;;1.90;1.57;;;10.20;99.90;;;;;;4980829;28;20046;-91
2023/01/11 04:26:38;;;;;;;1.67;1.57;;;10.20;99.90;;;;;;4998292;28;20490;-91
2023/01/11 04:29:04;;;;;;;1.97;1.80;;;10.20;99.90;;;;;;4966233;28;20053;-92
2023/01/11 04:31:30;;;;;;;2.13;1.87;;;10.20;99.90;;;;;;4990584;28;20100;-90
2023/01/11 04:33:56;;;;;;;2.50;2.30;;;10.30;99.90;;;;;;5014180;28;20077;-91
2023/01/11 04:36:22;;;;;;;2.60;2.40;;;10.30;99.90;;;;;;4998768;28;20088;-91
2023/01/11 04:38:48;;;;;;;2.73;2.30;;;10.30;99.90;;;;;;4996892;28;20058;-89
2023/01/11 04:44:00;;;;;;;3.50;2.87;;;10.30;99.90;;;;;;5013211;28;20132;-93
2023/01/11 04:46:26;;;;;;;4.43;2.90;;;10.40;99.90;;;;;;4980694;28;20042;-90
2023/01/11 04:48:52;;;;;;;4.60;3.00;;;10.40;99.90;;;;;;5013525;28;20053;-88
2023/01/11 04:51:18;;;;;;;3.23;2.93;;;10.40;99.90;;;;;;5014727;28;20046;-89
2023/01/11 04:53:46;;;;;;;5.47;3.47;;;10.40;99.90;;;;;;5000936;28;20100;-90
2023/01/11 04:56:12;;;;;;;5.27;3.50;;;10.50;99.90;;;;;;5001145;28;20390;-89
2023/01/11 04:58:38;;;;;;;8.27;4.20;;;10.50;99.90;;;;;;5017458;28;20045;-89
2023/01/11 05:01:11;;;;;;;7.97;4.43;;;10.50;99.90;;;;;;5003390;28;20497;-90
2023/01/11 05:03:37;;;;;;;7.70;4.70;;;10.50;99.90;;;;;;5017615;28;20053;-88
2023/01/11 05:06:04;;;;;;;10.10;4.73;;;10.60;99.90;;;;;;5026476;28;20057;-88
2023/01/11 05:08:30;;;;;;;10.53;5.17;;;10.50;99.90;;;;;;5004305;28;20047;-89
2023/01/11 05:10:59;;;;;;;9.10;4.93;;;10.60;99.90;;;;;;5023634;28;20451;-88
2023/01/11 05:13:40;;;;;;;14.33;5.93;;;10.60;99.90;;;;;;5055144;28;20042;-89
2023/01/11 05:16:08;;;;;;;11.40;5.33;;;10.60;99.90;;;;;;5037842;28;20044;-90
2023/01/11 05:18:34;;;;;;;14.73;5.27;;;10.60;99.90;;;;;;5028820;28;20285;-88
2023/01/11 05:21:01;;;;;;;15.57;6.10;;;10.70;99.90;;;;;;5016281;28;20042;-89
2023/01/11 05:23:26;;;;;;;17.30;6.10;;;10.70;99.90;;;;;;5001068;28;20050;-88
2023/01/11 05:25:52;;;;;;;14.17;5.70;;;10.70;99.90;;;;;;5031939;28;20120;-90
2023/01/11 05:28:18;;;;;;;17.17;5.07;;;10.70;99.90;;;;;;5040286;28;20116;-88
2023/01/11 05:30:50;;;;;;;19.40;5.00;;;10.70;99.90;;;;;;5045808;28;20041;-87
2023/01/11 05:33:16;;;;;;;16.80;5.03;;;10.70;99.90;;;;;;5036566;28;20045;-86
2023/01/11 05:35:45;;;;;;;11.17;5.47;;;10.70;99.90;;;;;;5047611;28;20045;-89
2023/01/11 05:38:11;;;;;;;16.70;5.15;;;10.70;99.90;;;;;;5021014;28;20038;-87
2023/01/11 05:40:36;;;;;;;17.80;5.90;;;10.70;99.90;;;;;;5019995;28;20049;-88
2023/01/11 05:43:03;;;;;;;18.00;5.23;;;10.70;99.90;;;;;;5020586;28;20033;-86
2023/01/11 05:45:30;;;;;;;21.03;5.07;;;10.70;99.90;;;;;;5034539;28;20049;-88
2023/01/11 05:47:57;;;;;;;20.57;5.10;;;10.70;99.90;;;;;;5027966;28;20475;-90
2023/01/11 05:50:23;;;;;;;17.30;4.90;;;10.70;99.90;;;;;;5021304;28;20077;-88
2023/01/11 05:52:49;;;;;;;21.07;5.43;;;10.60;99.90;;;;;;4987193;28;20052;-89
2023/01/11 05:55:15;;;;;;;18.53;4.00;;;10.60;99.90;;;;;;5036308;28;20105;-91
2023/01/11 05:57:45;;;;;;;18.27;4.20;;;10.60;99.90;;;;;;5036275;28;20041;-89
2023/01/11 06:00:12;;;;;;;19.45;4.18;;;10.60;99.90;;;;;;5028686;28;20046;-90
2023/01/11 06:02:38;;;;;;;16.58;4.25;;;10.60;99.90;;;;;;5018420;28;20042;-90
2023/01/11 06:05:04;;;;;;;26.77;4.30;;;10.60;99.90;;;;;;5029366;28;20046;-90
2023/01/11 06:07:30;;;;;;;14.90;4.63;;;10.50;99.90;;;;;;4994321;28;20050;-90
2023/01/11 06:09:56;;;;;;;19.30;4.77;;;10.50;99.90;;;;;;4998561;28;20046;-90
2023/01/11 06:12:22;;;;;;;19.93;4.57;;;10.50;99.90;;;;;;5007666;28;20124;-90
2023/01/11 06:14:47;;;;;;;24.83;5.13;;;10.50;99.90;;;;;;5014495;28;20045;-90
2023/01/11 06:17:13;;;;;;;16.77;4.60;;;10.50;99.90;;;;;;4966415;28;20060;-90
2023/01/11 06:19:39;;;;;;;20.27;5.22;;;10.50;99.90;;;;;;4996959;28;20045;-89
2023/01/11 06:22:04;;;;;;;23.60;5.17;;;10.40;99.90;;;;;;4998716;28;20048;-90
2023/01/11 06:24:30;;;;;;;24.33;5.30;;;10.40;99.90;;;;;;4997749;28;20034;-91
2023/01/11 06:26:56;;;;;;;18.17;4.70;;;10.40;99.90;;;;;;4994405;28;20038;-91
2023/01/11 06:29:22;;;;;;;23.43;5.33;;;10.40;99.90;;;;;;4982392;28;20057;-93
2023/01/11 06:31:47;;;;;;;23.17;5.97;;;10.40;99.90;;;;;;4999104;28;20136;-90
2023/01/11 06:34:13;;;;;;;22.93;5.53;;;10.40;99.90;;;;;;5018702;28;20045;-90
2023/01/11 06:36:40;;;;;;;21.67;5.50;;;10.40;99.90;;;;;;5003182;28;20132;-90
2023/01/11 06:39:07;;;;;;;27.53;5.73;;;10.40;99.90;;;;;;4998658;28;20118;-89
2023/01/11 06:41:33;;;;;;;22.42;5.65;;;10.40;99.90;;;;;;5015830;28;20042;-90
2023/01/11 06:43:58;;;;;;;28.40;6.07;;;10.40;99.90;;;;;;5000638;28;20100;-90
2023/01/11 06:46:24;;;;;;;24.17;5.27;;;10.40;99.90;;;;;;5001410;28;20642;-90
2023/01/11 06:48:50;;;;;;;25.13;5.33;;;10.30;99.90;;;;;;5019433;28;20105;-89
2023/01/11 06:51:16;;;;;;;21.20;5.03;;;10.30;99.90;;;;;;5008383;28;20100;-89
2023/01/11 06:53:43;;;;;;;19.10;4.90;;;10.30;99.90;;;;;;5005880;28;20034;-84
2023/01/11 06:56:15;;;;;;;22.07;4.83;;;10.30;99.90;;;;;;4996176;28;20485;-84
2023/01/11 06:58:41;;;;;;;;;;;10.30;99.90;;;;;;4996981;28;20041;-84
2023/01/11 07:01:06;;;;;;;22.30;4.47;;;10.30;99.90;;;;;;5012398;28;20293;-84
2023/01/11 07:03:32;;;;;;;25.30;5.35;;;10.30;99.90;;;;;;4995621;28;20037;-84
2023/01/11 07:05:58;;;;;;;22.17;5.00;;;10.20;99.90;;;;;;5022102;28;20061;-84
2023/01/11 07:08:24;;;;;;;23.27;4.70;;;10.20;99.90;;;;;;5035197;28;20489;-85
2023/01/11 07:10:50;;;;;;;18.00;4.43;;;10.20;99.90;;;;;;5034744;28;20041;-84
2023/01/11 07:13:16;;;;;;;20.80;4.80;;;10.10;99.90;;;;;;5034973;28;20037;-84
2023/01/11 07:15:44;;;;;;;21.67;4.80;;;10.10;99.90;;;;;;5018521;28;20044;-84
2023/01/11 07:18:10;;;;;;;16.93;4.63;;;10.10;99.90;;;;;;5017153;28;20033;-85
2023/01/11 07:20:36;;;;;;;22.23;4.67;;;10.10;99.90;;;;;;5021262;28;20431;-84
2023/01/11 07:23:02;;;;;;;26.50;5.00;;;10.10;99.90;;;;;;5013364;28;20126;-84
2023/01/11 07:25:28;;;;;;;18.63;4.50;;;10.10;99.90;;;;;;5028526;28;20045;-84
2023/01/11 07:28:03;;;;;;;22.27;4.80;;;10.10;99.90;;;;;;5025599;28;20029;-84
2023/01/11 07:30:31;;;;;;;22.23;5.20;;;10.10;99.90;;;;;;5009049;28;20095;-84
2023/01/11 07:32:59;;;;;;;18.87;4.70;;;10.00;99.90;;;;;;5026245;28;20397;-85
2023/01/11 07:35:25;;;;;;;22.63;5.20;;;10.00;99.90;;;;;;5009990;28;20051;-84
2023/01/11 07:37:51;;;;;;;19.93;5.00;;;10.00;99.90;;;;;;5018423;28;20037;-84
2023/01/11 07:40:17;;;;;;;24.07;5.13;;;10.00;99.90;;;;;;5008730;28;20040;-84
2023/01/11 07:45:36;;;;;;;;;;;10.00;99.90;;;;;;5024080;28;20033;-84
2023/01/11 07:48:05;;;;;;;22.60;5.23;;;10.00;99.90;;;;;;5027650;28;19928;-84
2023/01/11 07:50:32;;;;;;;21.33;5.10;;;10.00;99.90;;;;;;5007344;28;20041;-84
2023/01/11 07:52:57;;;;;;;26.00;5.73;;;10.00;99.90;;;;;;5023704;28;20075;-84
2023/01/11 07:55:23;;;;;;;22.77;5.37;;;10.00;99.90;;;;;;5021945;28;20076;-84
2023/01/11 07:57:49;;;;;;;20.57;5.10;;;10.00;99.90;;;;;;5020854;28;20594;-84
2023/01/11 08:00:15;;;;;;;29.73;5.30;;;10.00;99.90;;;;;;5018458;28;20045;-85
2023/01/11 08:02:42;;;;;;;23.17;5.80;;;10.00;99.90;;;;;;5008495;28;20044;-84
2023/01/11 08:05:08;;;;;;;23.87;4.87;;;10.00;99.90;;;;;;4992751;28;20037;-85
2023/01/11 08:07:37;;;;;;;23.13;5.83;;;10.00;99.90;;;;;;4994201;28;20045;-85
2023/01/11 08:10:03;;;;;;;36.53;6.33;;;10.00;99.90;;;;;;5003158;28;20044;-83
2023/01/11 08:15:13;;;;;;;24.87;5.17;;;10.00;99.90;;;;;;5005343;28;20501;-84
2023/01/11 08:17:39;;;;;;;24.63;5.80;;;10.00;99.90;;;;;;5008832;28;20041;-84
2023/01/11 08:20:05;;;;;;;17.03;4.73;;;10.00;99.90;;;;;;5009095;28;20503;-84
2023/01/11 08:22:31;;;;;;;22.53;5.03;;;10.00;99.90;;;;;;5019099;28;20033;-85
2023/01/11 08:24:56;;;;;;;22.93;4.97;;;10.00;99.90;;;;;;5019644;28;20504;-84
2023/01/11 08:27:22;;;;;;;20.53;4.67;;;10.00;99.90;;;;;;5020191;28;20109;-85
2023/01/11 08:29:48;;;;;;;21.33;4.83;;;10.00;99.90;;;;;;4994013;28;20047;-83
2023/01/11 08:32:13;;;;;;;17.47;4.27;;;10.00;99.90;;;;;;5016792;28;20053;-84
2023/01/11 08:34:39;;;;;;;17.83;3.53;;;9.90;99.90;;;;;;5009618;28;20041;-84
2023/01/11 08:37:05;;;;;;;17.77;4.40;;;9.90;99.90;;;;;;5009006;28;20048;-84
2023/01/11 08:39:32;;;;;;;14.77;4.07;;;9.80;99.90;;;;;;5008525;28;20787;-84
2023/01/11 08:41:59;;;;;;;11.60;3.17;;;9.80;99.90;;;;;;5019687;28;20043;-84
2023/01/11 08:44:25;;;;;;;12.03;3.73;;;9.80;99.90;;;;;;5021066;28;20113;-83
2023/01/11 08:46:51;;;;;;;12.77;3.30;;;9.70;99.90;;;;;;5004229;28;20029;-84
2023/01/11 08:49:17;;;;;;;14.40;3.20;;;9.70;99.90;;;;;;4993476;28;20112;-85
2023/01/11 08:51:42;;;;;;;10.73;3.27;;;9.60;99.90;;;;;;5010123;28;20124;-85
2023/01/11 08:54:13;;;;;;;10.37;3.63;;;9.50;99.90;;;;;;5020236;28;20041;-84
2023/01/11 08:56:39;;;;;;;16.37;3.10;;;9.50;99.90;;;;;;5007826;28;20541;-84
2023/01/11 08:59:05;;;;;;;10.50;2.83;;;9.50;99.90;;;;;;5007005;28;20130;-84
2023/01/11 09:01:32;;;;;;;12.10;2.80;;;9.40;99.90;;;;;;5022302;28;20041;-84
2023/01/11 09:03:58;;;;;;;11.33;2.90;;;9.40;99.90;;;;;;5009160;28;20048;-84
2023/01/11 09:06:24;;;;;;;12.10;3.30;;;9.30;99.90;;;;;;5002965;28;20053;-84
2023/01/11 09:08:50;;;;;;;12.13;2.73;;;9.30;99.90;;;;;;5021222;28;20045;-84
2023/01/11 09:14:00;;;;;;;13.63;3.17;;;9.30;99.90;;;;;;5033773;28;20072;-84
2023/01/11 09:16:26;;;;;;;10.53;2.50;;;9.30;99.90;;;;;;5007767;28;20084;-84
2023/01/11 09:18:52;;;;;;;8.47;2.60;;;9.30;99.90;;;;;;5024040;28;20029;-84
2023/01/11 09:21:20;;;;;;;8.37;2.43;;;9.20;99.90;;;;;;5018644;28;20071;-87
2023/01/11 09:23:46;;;;;;;7.10;2.50;;;9.20;99.90;;;;;;5034274;28;20036;-89
2023/01/11 09:26:14;;;;;;;12.70;2.70;;;9.20;99.90;;;;;;5025684;28;20060;-88
2023/01/11 09:28:46;;;;;;;13.50;3.07;;;9.20;99.90;;;;;;5032346;28;20029;-88
2023/01/11 09:31:11;;;;;;;12.52;2.85;;;9.20;99.90;;;;;;5028856;28;20038;-87
2023/01/11 09:33:38;;;;;;;13.20;2.30;;;9.10;99.90;;;;;;5025652;28;20102;-86
2023/01/11 09:36:04;;;;;;;11.87;2.40;;;9.20;99.90;;;;;;5000619;28;20144;-88
2023/01/11 09:38:32;;;;;;;9.53;2.67;;;9.20;99.90;;;;;;5031900;28;20041;-89
2023/01/11 09:41:25;;;;;;;12.23;2.47;;;9.10;99.90;;;;;;5036134;28;20051;-87
2023/01/11 09:44:17;;;;;;;8.18;2.30;;;9.10;99.90;;;;;;5031099;28;20046;-85
2023/01/11 09:46:50;;;;;;;;;;;9.10;99.90;;;;;;5026609;28;20164;-86
2023/01/11 09:49:27;;;;;;;15.00;2.88;;;9.10;99.90;;;;;;5016690;28;19965;-86
2023/01/11 09:52:13;;;;;;;15.90;2.37;;;9.00;99.90;;;;;;5043802;28;20423;-86
2023/01/11 09:54:39;;;;;;;9.77;2.37;;;9.10;99.90;;;;;;5031535;28;20051;-87
2023/01/11 09:57:18;;;;;;;11.37;2.73;;;9.00;99.90;;;;;;5014920;28;20048;-87
2023/01/11 09:59:55;;;;;;;10.30;2.67;;;9.10;99.90;;;;;;5027982;28;20090;-86
2023/01/11 10:02:59;;;;;;;11.00;2.83;;;9.10;99.90;;;;;;5039110;28;20072;-86
2023/01/11 10:05:50;;;;;;;10.00;2.80;;;9.20;99.90;;;;;;5029783;28;20380;-86
2023/01/11 10:08:37;;;;;;;12.90;3.07;;;9.20;99.90;;;;;;5012290;28;20049;-86
2023/01/11 10:11:19;;;;;;;14.63;3.13;;;9.30;99.90;;;;;;5026547;28;20032;-86
2023/01/11 10:14:02;;;;;;;10.00;2.37;;;9.40;99.90;;;;;;5015984;28;20049;-88
2023/01/11 10:17:19;;;;;;;14.37;3.17;;;9.40;99.90;;;;;;5021128;28;20284;-87
2023/01/11 10:19:56;;;;;;;15.40;3.00;;;9.50;99.90;;;;;;5048401;28;20041;-90
2023/01/11 10:22:32;;;;;;;11.77;2.77;;;9.60;99.90;;;;;;5030174;28;20044;-86
2023/01/11 10:25:00;;;;;;;15.87;3.13;;;9.70;99.90;;;;;;5015290;28;20041;-86
2023/01/11 10:27:39;;;;;;;11.50;3.07;;;9.70;99.90;;;;;;5014307;28;20088;-86
2023/01/11 10:42:09;;;;;;;13.53;3.70;;;10.00;99.90;;;;;;5027670;28;20040;-89
2023/01/11 10:44:56;;;;;;;13.87;3.17;;;10.10;99.90;;;;;;5027533;28;20452;-88
2023/01/11 10:47:28;;;;;;;14.17;3.70;;;10.20;99.90;;;;;;5013683;28;20041;-88
2023/01/11 10:50:03;;;;;;;10.55;3.65;;;10.20;99.90;;;;;;5013708;28;21297;-87
2023/01/11 10:52:31;;;;;;;11.83;3.57;;;10.20;99.90;;;;;;5027284;28;20040;-86
2023/01/11 10:54:59;;;;;;;12.40;3.20;;;10.20;99.90;;;;;;5028585;28;20041;-88
2023/01/11 10:57:51;;;;;;;14.63;3.80;;;10.20;99.90;;;;;;4982620;28;20055;-88
2023/01/11 11:00:46;;;;;;;12.63;3.57;;;10.30;99.90;;;;;;5013268;28;20045;-87
2023/01/11 11:03:30;;;;;;;15.27;3.80;;;10.30;99.90;;;;;;5015715;28;20040;-88
2023/01/11 11:06:09;;;;;;;15.80;4.10;;;10.20;99.90;;;;;;5013729;28;20037;-91
2023/01/11 11:08:50;;;;;;;12.30;3.43;;;10.30;99.90;;;;;;5024849;28;20048;-87
2023/01/11 11:11:39;;;;;;;16.37;5.27;;;10.30;99.90;;;;;;5029472;28;20076;-87
2023/01/11 11:14:29;;;;;;;10.27;3.40;;;10.20;99.90;;;;;;5031058;28;20485;-89
2023/01/11 11:17:04;;;;;;;15.17;3.60;;;10.20;99.90;;;;;;5038022;28;20048;-88
2023/01/11 11:19:31;;;;;;;11.73;3.70;;;10.10;99.90;;;;;;5041542;28;20045;-89
2023/01/11 11:21:58;;;;;;;16.90;4.23;;;10.10;99.90;;;;;;5014838;28;20116;-87
2023/01/11 11:24:31;;;;;;;15.37;4.03;;;10.10;99.90;;;;;;5035969;28;20304;-90
2023/01/11 11:27:03;;;;;;;17.13;3.87;;;10.10;99.90;;;;;;5005087;28;20051;-87
2023/01/11 11:29:29;;;;;;;15.68;3.58;;;10.10;99.90;;;;;;5024468;28;20049;-88
2023/01/11 11:31:58;;;;;;;14.10;4.03;;;10.10;99.90;;;;;;5008528;28;20040;-90
2023/01/11 11:34:26;;;;;;;18.83;3.70;;;10.10;99.90;;;;;;5019661;28;20037;-88
2023/01/11 11:36:53;;;;;;;13.50;3.60;;;10.00;99.90;;;;;;5014069;28;20119;-91
2023/01/11 11:39:45;;;;;;;14.57;3.87;;;10.00;99.90;;;;;;5030020;28;20559;-89
2023/01/11 11:42:15;;;;;;;16.42;3.63;;;10.00;99.90;;;;;;5013582;28;20095;-88
2023/01/11 11:44:41;;;;;;;14.37;3.80;;;10.00;99.90;;;;;;5018076;28;20087;-90
2023/01/11 11:47:16;;;;;;;15.23;3.30;;;10.00;99.90;;;;;;5013101;28;20041;-87
2023/01/11 11:49:42;;;;;;;10.23;3.60;;;10.00;99.90;;;;;;5037283;28;20496;-88
2023/01/11 11:52:13;;;;;;;13.77;3.87;;;9.90;99.90;;;;;;5030551;28;20045;-90
2023/01/11 11:54:51;;;;;;;14.00;3.25;;;9.90;99.90;;;;;;5039317;28;20046;-90
2023/01/11 11:57:23;;;;;;;13.77;3.37;;;9.90;99.90;;;;;;5017293;28;20041;-87
2023/01/11 12:00:03;;;;;;;10.53;3.87;;;9.90;99.90;;;;;;5013216;28;20098;-88
2023/01/11 12:02:31;;;;;;;14.17;3.90;;;9.90;99.90;;;;;;5032430;28;20084;-88
2023/01/11 12:05:03;;;;;;;11.90;3.40;;;9.90;99.90;;;;;;5016706;28;20072;-88
2023/01/11 12:07:36;;;;;;;;;;;9.80;99.90;;;;;;5017179;28;20053;-92
2023/01/11 12:10:12;;;;;;;21.70;4.00;;;9.80;99.90;;;;;;5017800;28;19924;-90
2023/01/11 12:13:21;;;;;;;14.87;3.37;;;9.80;99.90;;;;;;5000894;28;20057;-87
2023/01/11 12:15:56;;;;;;;18.70;4.10;;;9.90;99.90;;;;;;5031327;28;20396;-88
2023/01/11 12:18:36;;;;;;;14.63;4.00;;;10.00;99.90;;;;;;5026730;28;20090;-89
2023/01/11 12:21:20;;;;;;;17.30;4.22;;;10.00;99.90;;;;;;5026886;28;20561;-89
2023/01/11 12:23:47;;;;;;;17.67;4.37;;;10.10;99.90;;;;;;5036849;28;20131;-88
2023/01/11 12:26:13;;;;;;;16.80;3.70;;;10.10;99.90;;;;;;5035995;28;20137;-90
2023/01/11 12:28:54;;;;;;;12.13;3.77;;;10.20;99.90;;;;;;5018725;28;20033;-90
2023/01/11 12:31:22;;;;;;;13.13;3.47;;;10.30;99.90;;;;;;5016964;28;20384;-87
2023/01/11 12:34:39;;;;;;;9.07;3.47;;;10.40;99.90;;;;;;5019921;28;20040;-90
2023/01/11 12:37:10;;;;;;;17.50;4.00;;;10.40;99.90;;;;;;4976103;28;20153;-89
2023/01/11 12:39:54;;;;;;;17.83;3.40;;;10.40;99.90;;;;;;5032290;28;20488;-87
2023/01/11 12:42:38;;;;;;;15.87;3.47;;;10.40;99.90;;;;;;5025380;28;20371;-88
2023/01/11 12:45:36;;;;;;;15.87;3.33;;;10.40;99.90;;;;;;5016855;28;20033;-88
2023/01/11 12:48:20;;;;;;;12.57;3.33;;;10.30;99.90;;;;;;5004142;28;20191;-90
2023/01/11 12:51:09;;;;;;;13.57;3.40;;;10.20;99.90;;;;;;5022811;28;20041;-89
2023/01/11 12:53:44;;;;;;;14.33;3.33;;;10.20;99.90;;;;;;5033898;28;20480;-90
2023/01/11 12:56:48;;;;;;;17.03;3.63;;;10.10;99.90;;;;;;5045997;28;20106;-89
2023/01/11 12:59:33;;;;;;;15.60;4.00;;;10.10;99.90;;;;;;4956051;28;20050;-90
2023/01/11 13:02:01;;;;;;;15.80;4.17;;;10.10;99.90;;;;;;4971888;28;20117;-88
2023/01/11 13:04:59;;;;;;;13.70;3.60;;;10.00;99.90;;;;;;5003538;28;20132;-90
2023/01/11 13:07:50;;;;;;;19.53;3.57;;;10.00;99.90;;;;;;5035052;28;20088;-87
2023/01/11 13:10:23;;;;;;;14.87;3.57;;;10.00;99.90;;;;;;5020739;28;20056;-88
2023/01/11 13:13:02;;;;;;;14.10;3.63;;;10.00;99.90;;;;;;5047140;28;20084;-90
2023/01/11 13:15:47;;;;;;;19.07;3.70;;;10.10;99.90;;;;;;5055573;28;20071;-89
2023/01/11 13:18:57;;;;;;;20.53;4.00;;;10.10;99.90;;;;;;5024145;28;20039;-90
2023/01/11 13:21:34;;;;;;;18.70;3.63;;;10.10;99.90;;;;;;5035153;28;20041;-87
2023/01/11 13:24:17;;;;;;;14.27;3.57;;;10.00;99.90;;;;;;5054257;28;20045;-88
2023/01/11 13:26:48;;;;;;;13.10;3.50;;;10.00;99.90;;;;;;5026798;28;20084;-90
2023/01/11 13:29:19;;;;;;;18.83;4.03;;;10.00;99.90;;;;;;5040527;28;20059;-87
2023/01/11 13:31:47;;;;;;;15.63;3.60;;;10.00;99.90;;;;;;5055812;28;20120;-88
2023/01/11 13:34:16;;;;;;;22.10;4.23;;;10.00;99.90;;;;;;5016547;28;20123;-89
2023/01/11 13:36:47;;;;;;;15.83;3.90;;;10.00;99.90;;;;;;5023365;28;20041;-89
2023/01/11 13:39:42;;;;;;;15.18;4.13;;;10.00;99.90;;;;;;5037948;28;20503;-88
2023/01/11 13:42:23;;;;;;;17.77;4.20;;;10.00;99.90;;;;;;5027215;28;20403;-89
2023/01/11 13:44:57;;;;;;;13.53;4.23;;;10.00;99.90;;;;;;5027971;28;20400;-88
2023/01/11 13:47:49;;;;;;;27.27;5.57;;;10.00;99.90;;;;;;5038917;28;20041;-91
2023/01/11 13:50:38;;;;;;;18.80;4.03;;;9.90;99.90;;;;;;5045799;28;20064;-88
2023/01/11 13:53:28;;;;;;;14.93;3.83;;;9.90;99.90;;;;;;5003070;28;20489;-90
2023/01/11 13:56:07;;;;;;;16.40;3.40;;;9.80;99.90;;;;;;4964796;28;20053;-88